sensor_id;sensor_type;location;lat;lon;timestamp;temperature;humidity
820;DHT22;392;48.838;2.322;2023-02-14T00:00:17;8.70;45.70
820;DHT22;392;48.838;2.322;2023-02-14T00:02:46;8.70;45.50
820;DHT22;392;48.838;2.322;2023-02-14T00:05:16;8.80;45.50
820;DHT22;392;48.838;2.322;2023-02-14T00:07:43;8.80;45.30
820;DHT22;392;48.838;2.322;2023-02-14T00:10:11;8.80;45.20
820;DHT22;392;48.838;2.322;2023-02-14T00:12:38;8.70;44.90
820;DHT22;392;48.838;2.322;2023-02-14T00:15:06;8.70;45.20
820;DHT22;392;48.838;2.322;2023-02-14T00:17:50;8.70;45.40
820;DHT22;392;48.838;2.322;2023-02-14T00:20:21;8.80;45.40
820;DHT22;392;48.838;2.322;2023-02-14T00:22:49;8.70;45.00
820;DHT22;392;48.838;2.322;2023-02-14T00:25:16;8.70;45.30
820;DHT22;392;48.838;2.322;2023-02-14T00:27:44;8.70;45.60
820;DHT22;392;48.838;2.322;2023-02-14T00:30:12;8.70;45.60
820;DHT22;392;48.838;2.322;2023-02-14T00:32:41;8.60;45.20
820;DHT22;392;48.838;2.322;2023-02-14T00:35:09;8.50;45.20
820;DHT22;392;48.838;2.322;2023-02-14T00:37:41;8.50;45.70
820;DHT22;392;48.838;2.322;2023-02-14T00:40:09;8.50;45.90
820;DHT22;392;48.838;2.322;2023-02-14T00:42:38;8.40;46.10
820;DHT22;392;48.838;2.322;2023-02-14T00:45:06;8.40;46.50
820;DHT22;392;48.838;2.322;2023-02-14T00:47:34;8.30;47.00
820;DHT22;392;48.838;2.322;2023-02-14T00:50:01;8.30;47.30
820;DHT22;392;48.838;2.322;2023-02-14T00:52:30;8.30;47.70
820;DHT22;392;48.838;2.322;2023-02-14T00:54:59;8.30;47.80
820;DHT22;392;48.838;2.322;2023-02-14T00:57:26;8.30;47.90
820;DHT22;392;48.838;2.322;2023-02-14T00:59:53;8.30;48.10
820;DHT22;392;48.838;2.322;2023-02-14T01:02:21;8.20;48.00
820;DHT22;392;48.838;2.322;2023-02-14T01:04:50;8.20;48.70
820;DHT22;392;48.838;2.322;2023-02-14T01:07:17;8.20;48.30
820;DHT22;392;48.838;2.322;2023-02-14T01:09:47;8.10;48.10
820;DHT22;392;48.838;2.322;2023-02-14T01:12:15;8.10;48.10
820;DHT22;392;48.838;2.322;2023-02-14T01:14:43;8.10;48.10
820;DHT22;392;48.838;2.322;2023-02-14T01:17:10;8.00;48.30
820;DHT22;392;48.838;2.322;2023-02-14T01:19:37;8.00;48.80
820;DHT22;392;48.838;2.322;2023-02-14T01:22:07;8.00;49.40
820;DHT22;392;48.838;2.322;2023-02-14T01:24:34;7.90;48.70
820;DHT22;392;48.838;2.322;2023-02-14T01:27:02;7.90;49.10
820;DHT22;392;48.838;2.322;2023-02-14T01:29:32;7.90;49.50
820;DHT22;392;48.838;2.322;2023-02-14T01:32:00;7.90;49.70
820;DHT22;392;48.838;2.322;2023-02-14T01:34:27;7.90;49.80
820;DHT22;392;48.838;2.322;2023-02-14T01:36:55;7.80;50.00
820;DHT22;392;48.838;2.322;2023-02-14T01:39:22;7.80;50.40
820;DHT22;392;48.838;2.322;2023-02-14T01:41:50;7.80;50.70
820;DHT22;392;48.838;2.322;2023-02-14T01:44:55;7.80;50.60
820;DHT22;392;48.838;2.322;2023-02-14T01:47:26;7.80;50.70
820;DHT22;392;48.838;2.322;2023-02-14T01:49:58;7.80;50.80
820;DHT22;392;48.838;2.322;2023-02-14T01:52:30;7.70;50.60
820;DHT22;392;48.838;2.322;2023-02-14T01:55:02;7.70;50.80
820;DHT22;392;48.838;2.322;2023-02-14T01:57:35;7.70;51.50
820;DHT22;392;48.838;2.322;2023-02-14T02:00:07;7.70;51.50
820;DHT22;392;48.838;2.322;2023-02-14T02:02:54;7.70;51.60
820;DHT22;392;48.838;2.322;2023-02-14T02:05:22;7.70;51.80
820;DHT22;392;48.838;2.322;2023-02-14T02:07:50;7.70;52.10
820;DHT22;392;48.838;2.322;2023-02-14T02:10:18;7.80;52.30
820;DHT22;392;48.838;2.322;2023-02-14T02:12:47;7.80;52.80
820;DHT22;392;48.838;2.322;2023-02-14T02:15:16;7.80;51.30
820;DHT22;392;48.838;2.322;2023-02-14T02:17:50;7.70;51.20
820;DHT22;392;48.838;2.322;2023-02-14T02:20:43;7.70;51.40
820;DHT22;392;48.838;2.322;2023-02-14T02:23:55;7.70;51.70
820;DHT22;392;48.838;2.322;2023-02-14T02:33:53;7.50;51.90
820;DHT22;392;48.838;2.322;2023-02-14T02:39:37;7.40;52.40
820;DHT22;392;48.838;2.322;2023-02-14T02:42:32;7.40;52.60
820;DHT22;392;48.838;2.322;2023-02-14T02:45:10;7.30;53.00
820;DHT22;392;48.838;2.322;2023-02-14T02:47:43;7.30;53.40
820;DHT22;392;48.838;2.322;2023-02-14T02:50:21;7.30;53.60
820;DHT22;392;48.838;2.322;2023-02-14T02:53:15;7.30;53.70
820;DHT22;392;48.838;2.322;2023-02-14T02:55:51;7.20;53.80
820;DHT22;392;48.838;2.322;2023-02-14T02:58:41;7.20;54.20
820;DHT22;392;48.838;2.322;2023-02-14T03:01:14;7.20;54.60
820;DHT22;392;48.838;2.322;2023-02-14T03:03:46;7.10;54.60
820;DHT22;392;48.838;2.322;2023-02-14T03:06:33;7.10;54.80
820;DHT22;392;48.838;2.322;2023-02-14T03:09:11;7.10;55.00
820;DHT22;392;48.838;2.322;2023-02-14T03:11:45;7.10;55.00
820;DHT22;392;48.838;2.322;2023-02-14T03:14:19;7.10;55.30
820;DHT22;392;48.838;2.322;2023-02-14T03:16:58;7.10;55.30
820;DHT22;392;48.838;2.322;2023-02-14T03:19:40;7.10;55.10
820;DHT22;392;48.838;2.322;2023-02-14T03:22:42;7.10;54.80
820;DHT22;392;48.838;2.322;2023-02-14T03:25:24;7.10;55.10
820;DHT22;392;48.838;2.322;2023-02-14T03:28:03;7.00;55.60
820;DHT22;392;48.838;2.322;2023-02-14T03:30:44;7.00;55.50
820;DHT22;392;48.838;2.322;2023-02-14T03:33:19;7.00;55.70
820;DHT22;392;48.838;2.322;2023-02-14T03:35:58;7.00;55.60
820;DHT22;392;48.838;2.322;2023-02-14T03:38:31;7.00;55.70
820;DHT22;392;48.838;2.322;2023-02-14T03:41:06;7.00;55.60
820;DHT22;392;48.838;2.322;2023-02-14T03:43:38;7.00;55.00
820;DHT22;392;48.838;2.322;2023-02-14T03:46:10;7.00;54.80
820;DHT22;392;48.838;2.322;2023-02-14T03:48:42;7.00;55.00
820;DHT22;392;48.838;2.322;2023-02-14T03:51:13;7.00;55.10
820;DHT22;392;48.838;2.322;2023-02-14T03:53:44;7.00;55.00
820;DHT22;392;48.838;2.322;2023-02-14T03:56:22;7.00;55.30
820;DHT22;392;48.838;2.322;2023-02-14T03:58:56;6.90;56.40
820;DHT22;392;48.838;2.322;2023-02-14T04:01:31;6.90;56.10
820;DHT22;392;48.838;2.322;2023-02-14T04:03:59;6.90;56.20
820;DHT22;392;48.838;2.322;2023-02-14T04:06:28;6.90;55.70
820;DHT22;392;48.838;2.322;2023-02-14T04:08:55;6.80;55.70
820;DHT22;392;48.838;2.322;2023-02-14T04:11:24;6.80;56.20
820;DHT22;392;48.838;2.322;2023-02-14T04:13:51;6.80;56.50
820;DHT22;392;48.838;2.322;2023-02-14T04:16:18;6.80;56.50
820;DHT22;392;48.838;2.322;2023-02-14T04:18:46;6.80;57.60
820;DHT22;392;48.838;2.322;2023-02-14T04:21:31;6.70;57.60
820;DHT22;392;48.838;2.322;2023-02-14T04:23:58;6.70;57.30
820;DHT22;392;48.838;2.322;2023-02-14T04:26:27;6.70;57.50
820;DHT22;392;48.838;2.322;2023-02-14T04:28:54;6.70;57.60
820;DHT22;392;48.838;2.322;2023-02-14T04:31:22;6.70;57.70
820;DHT22;392;48.838;2.322;2023-02-14T04:33:49;6.60;58.00
820;DHT22;392;48.838;2.322;2023-02-14T04:36:16;6.60;58.00
820;DHT22;392;48.838;2.322;2023-02-14T04:38:43;6.60;58.40
820;DHT22;392;48.838;2.322;2023-02-14T04:41:11;6.60;58.50
820;DHT22;392;48.838;2.322;2023-02-14T04:43:40;6.60;58.60
820;DHT22;392;48.838;2.322;2023-02-14T04:46:07;6.60;58.60
820;DHT22;392;48.838;2.322;2023-02-14T04:48:34;6.60;58.70
820;DHT22;392;48.838;2.322;2023-02-14T04:51:02;6.60;58.90
820;DHT22;392;48.838;2.322;2023-02-14T04:53:30;6.60;59.10
820;DHT22;392;48.838;2.322;2023-02-14T04:55:57;6.60;59.20
820;DHT22;392;48.838;2.322;2023-02-14T04:58:24;6.60;59.40
820;DHT22;392;48.838;2.322;2023-02-14T05:00:53;6.50;59.20
820;DHT22;392;48.838;2.322;2023-02-14T05:03:20;6.50;58.80
820;DHT22;392;48.838;2.322;2023-02-14T05:05:48;6.50;59.00
820;DHT22;392;48.838;2.322;2023-02-14T05:08:15;6.50;59.40
820;DHT22;392;48.838;2.322;2023-02-14T05:10:43;6.50;59.70
820;DHT22;392;48.838;2.322;2023-02-14T05:13:10;6.50;59.90
820;DHT22;392;48.838;2.322;2023-02-14T05:15:37;6.60;59.90
820;DHT22;392;48.838;2.322;2023-02-14T05:18:06;6.60;59.60
820;DHT22;392;48.838;2.322;2023-02-14T05:20:33;6.50;59.30
820;DHT22;392;48.838;2.322;2023-02-14T05:23:00;6.50;59.20
820;DHT22;392;48.838;2.322;2023-02-14T05:25:30;6.50;59.10
820;DHT22;392;48.838;2.322;2023-02-14T05:27:57;6.50;59.00
820;DHT22;392;48.838;2.322;2023-02-14T05:30:25;6.50;59.00
820;DHT22;392;48.838;2.322;2023-02-14T05:32:53;6.50;59.60
820;DHT22;392;48.838;2.322;2023-02-14T05:35:22;6.40;59.10
820;DHT22;392;48.838;2.322;2023-02-14T05:37:49;6.40;59.50
820;DHT22;392;48.838;2.322;2023-02-14T05:40:17;6.40;59.90
820;DHT22;392;48.838;2.322;2023-02-14T05:42:44;6.30;59.90
820;DHT22;392;48.838;2.322;2023-02-14T05:45:13;6.30;60.30
820;DHT22;392;48.838;2.322;2023-02-14T05:47:41;6.30;60.10
820;DHT22;392;48.838;2.322;2023-02-14T05:50:08;6.30;60.20
820;DHT22;392;48.838;2.322;2023-02-14T05:52:38;6.30;60.40
820;DHT22;392;48.838;2.322;2023-02-14T05:55:06;6.30;60.50
820;DHT22;392;48.838;2.322;2023-02-14T05:57:33;6.30;60.80
820;DHT22;392;48.838;2.322;2023-02-14T06:00:01;6.30;60.80
820;DHT22;392;48.838;2.322;2023-02-14T06:02:38;6.30;60.20
820;DHT22;392;48.838;2.322;2023-02-14T06:05:07;6.20;60.10
820;DHT22;392;48.838;2.322;2023-02-14T06:07:34;6.20;60.60
820;DHT22;392;48.838;2.322;2023-02-14T06:10:04;6.20;61.20
820;DHT22;392;48.838;2.322;2023-02-14T06:12:34;6.20;62.20
820;DHT22;392;48.838;2.322;2023-02-14T06:15:12;6.20;62.40
820;DHT22;392;48.838;2.322;2023-02-14T06:17:40;6.10;62.80
820;DHT22;392;48.838;2.322;2023-02-14T06:20:11;6.10;63.40
820;DHT22;392;48.838;2.322;2023-02-14T06:22:54;6.10;63.90
820;DHT22;392;48.838;2.322;2023-02-14T06:25:26;6.10;64.20
820;DHT22;392;48.838;2.322;2023-02-14T06:27:57;6.10;64.90
820;DHT22;392;48.838;2.322;2023-02-14T06:30:34;6.10;64.40
820;DHT22;392;48.838;2.322;2023-02-14T06:33:04;6.10;64.10
820;DHT22;392;48.838;2.322;2023-02-14T06:35:31;6.10;64.30
820;DHT22;392;48.838;2.322;2023-02-14T06:37:59;6.00;64.10
820;DHT22;392;48.838;2.322;2023-02-14T06:40:46;6.00;64.00
820;DHT22;392;48.838;2.322;2023-02-14T06:43:45;6.00;64.00
820;DHT22;392;48.838;2.322;2023-02-14T06:46:40;6.00;64.10
820;DHT22;392;48.838;2.322;2023-02-14T06:49:13;6.00;64.30
820;DHT22;392;48.838;2.322;2023-02-14T06:51:45;6.00;64.30
820;DHT22;392;48.838;2.322;2023-02-14T06:54:20;5.90;64.60
820;DHT22;392;48.838;2.322;2023-02-14T06:56:52;6.00;64.60
820;DHT22;392;48.838;2.322;2023-02-14T06:59:36;5.90;65.10
820;DHT22;392;48.838;2.322;2023-02-14T07:02:03;5.90;65.40
820;DHT22;392;48.838;2.322;2023-02-14T07:04:31;5.90;65.60
820;DHT22;392;48.838;2.322;2023-02-14T07:06:58;5.90;64.60
820;DHT22;392;48.838;2.322;2023-02-14T07:09:26;5.90;64.70
820;DHT22;392;48.838;2.322;2023-02-14T07:12:15;6.00;64.90
820;DHT22;392;48.838;2.322;2023-02-14T07:14:53;6.00;64.70
820;DHT22;392;48.838;2.322;2023-02-14T07:17:20;6.00;65.00
820;DHT22;392;48.838;2.322;2023-02-14T07:19:59;6.00;65.10
820;DHT22;392;48.838;2.322;2023-02-14T07:22:33;6.00;65.10
820;DHT22;392;48.838;2.322;2023-02-14T07:25:00;6.00;65.10
820;DHT22;392;48.838;2.322;2023-02-14T07:27:29;6.00;65.10
820;DHT22;392;48.838;2.322;2023-02-14T07:30:12;6.00;65.10
820;DHT22;392;48.838;2.322;2023-02-14T07:32:46;6.00;65.10
820;DHT22;392;48.838;2.322;2023-02-14T07:35:13;6.00;65.10
820;DHT22;392;48.838;2.322;2023-02-14T07:37:40;6.00;65.40
820;DHT22;392;48.838;2.322;2023-02-14T07:40:28;6.00;64.70
820;DHT22;392;48.838;2.322;2023-02-14T07:42:57;6.00;64.30
820;DHT22;392;48.838;2.322;2023-02-14T07:45:25;6.00;63.90
820;DHT22;392;48.838;2.322;2023-02-14T07:47:54;6.00;64.30
820;DHT22;392;48.838;2.322;2023-02-14T07:50:23;6.00;63.40
820;DHT22;392;48.838;2.322;2023-02-14T07:52:51;6.00;63.20
820;DHT22;392;48.838;2.322;2023-02-14T07:55:18;6.00;63.00
820;DHT22;392;48.838;2.322;2023-02-14T07:57:54;6.10;63.10
820;DHT22;392;48.838;2.322;2023-02-14T08:00:23;6.00;63.40
820;DHT22;392;48.838;2.322;2023-02-14T08:02:51;6.00;62.70
820;DHT22;392;48.838;2.322;2023-02-14T08:05:20;6.00;62.60
820;DHT22;392;48.838;2.322;2023-02-14T08:07:48;6.00;62.40
820;DHT22;392;48.838;2.322;2023-02-14T08:10:16;6.00;62.70
820;DHT22;392;48.838;2.322;2023-02-14T08:12:43;6.10;62.70
820;DHT22;392;48.838;2.322;2023-02-14T08:15:29;6.10;62.30
820;DHT22;392;48.838;2.322;2023-02-14T08:18:16;6.20;61.70
820;DHT22;392;48.838;2.322;2023-02-14T08:20:44;6.20;61.20
820;DHT22;392;48.838;2.322;2023-02-14T08:23:13;6.30;60.90
820;DHT22;392;48.838;2.322;2023-02-14T08:25:41;6.40;60.60
820;DHT22;392;48.838;2.322;2023-02-14T08:28:08;6.40;60.00
820;DHT22;392;48.838;2.322;2023-02-14T08:30:39;6.50;60.00
820;DHT22;392;48.838;2.322;2023-02-14T08:33:07;6.50;58.50
820;DHT22;392;48.838;2.322;2023-02-14T08:35:35;6.50;58.20
820;DHT22;392;48.838;2.322;2023-02-14T08:38:03;6.50;58.00
820;DHT22;392;48.838;2.322;2023-02-14T08:40:30;6.50;58.40
820;DHT22;392;48.838;2.322;2023-02-14T08:42:59;6.60;58.40
820;DHT22;392;48.838;2.322;2023-02-14T08:45:26;6.60;57.80
820;DHT22;392;48.838;2.322;2023-02-14T08:47:59;6.70;58.10
820;DHT22;392;48.838;2.322;2023-02-14T08:50:28;6.80;57.90
820;DHT22;392;48.838;2.322;2023-02-14T08:52:55;6.80;58.10
820;DHT22;392;48.838;2.322;2023-02-14T08:55:22;6.90;58.30
820;DHT22;392;48.838;2.322;2023-02-14T08:57:50;6.90;57.90
820;DHT22;392;48.838;2.322;2023-02-14T09:00:18;7.00;57.80
820;DHT22;392;48.838;2.322;2023-02-14T09:02:49;7.10;57.40
820;DHT22;392;48.838;2.322;2023-02-14T09:05:19;7.10;56.80
820;DHT22;392;48.838;2.322;2023-02-14T09:07:48;7.20;56.90
820;DHT22;392;48.838;2.322;2023-02-14T09:10:16;7.30;57.10
820;DHT22;392;48.838;2.322;2023-02-14T09:12:44;7.30;55.90
820;DHT22;392;48.838;2.322;2023-02-14T09:15:12;7.30;55.70
820;DHT22;392;48.838;2.322;2023-02-14T09:17:39;7.30;55.70
820;DHT22;392;48.838;2.322;2023-02-14T09:20:08;7.30;55.30
820;DHT22;392;48.838;2.322;2023-02-14T09:22:38;7.30;55.20
820;DHT22;392;48.838;2.322;2023-02-14T09:25:06;7.30;55.20
820;DHT22;392;48.838;2.322;2023-02-14T09:27:33;7.30;55.20
820;DHT22;392;48.838;2.322;2023-02-14T09:30:01;7.30;55.00
820;DHT22;392;48.838;2.322;2023-02-14T09:32:30;7.30;54.60
820;DHT22;392;48.838;2.322;2023-02-14T09:34:57;7.40;54.60
820;DHT22;392;48.838;2.322;2023-02-14T09:37:25;7.40;53.90
820;DHT22;392;48.838;2.322;2023-02-14T09:39:54;7.40;53.50
820;DHT22;392;48.838;2.322;2023-02-14T09:42:45;7.40;53.40
820;DHT22;392;48.838;2.322;2023-02-14T09:45:20;7.50;52.70
820;DHT22;392;48.838;2.322;2023-02-14T09:47:53;7.50;52.50
820;DHT22;392;48.838;2.322;2023-02-14T09:50:26;7.50;53.00
820;DHT22;392;48.838;2.322;2023-02-14T09:53:24;7.60;52.60
820;DHT22;392;48.838;2.322;2023-02-14T09:56:01;7.60;52.60
820;DHT22;392;48.838;2.322;2023-02-14T09:58:33;7.60;52.60
820;DHT22;392;48.838;2.322;2023-02-14T10:01:11;7.70;52.60
820;DHT22;392;48.838;2.322;2023-02-14T10:04:04;7.70;51.90
820;DHT22;392;48.838;2.322;2023-02-14T10:06:59;7.80;51.40
820;DHT22;392;48.838;2.322;2023-02-14T10:10:02;7.80;51.80
820;DHT22;392;48.838;2.322;2023-02-14T10:12:40;7.90;51.50
820;DHT22;392;48.838;2.322;2023-02-14T10:15:19;7.90;51.30
820;DHT22;392;48.838;2.322;2023-02-14T10:17:51;7.90;51.00
820;DHT22;392;48.838;2.322;2023-02-14T10:20:31;7.90;51.00
820;DHT22;392;48.838;2.322;2023-02-14T10:23:04;7.90;50.80
820;DHT22;392;48.838;2.322;2023-02-14T10:25:41;7.90;51.00
820;DHT22;392;48.838;2.322;2023-02-14T10:28:13;8.00;51.10
820;DHT22;392;48.838;2.322;2023-02-14T10:30:45;8.10;51.10
820;DHT22;392;48.838;2.322;2023-02-14T10:33:16;8.20;50.60
820;DHT22;392;48.838;2.322;2023-02-14T10:35:49;8.30;50.00
820;DHT22;392;48.838;2.322;2023-02-14T10:38:27;8.30;48.30
820;DHT22;392;48.838;2.322;2023-02-14T10:41:21;8.20;48.20
820;DHT22;392;48.838;2.322;2023-02-14T10:44:04;8.30;48.60
820;DHT22;392;48.838;2.322;2023-02-14T10:46:47;8.40;47.70
820;DHT22;392;48.838;2.322;2023-02-14T10:49:29;8.50;47.10
820;DHT22;392;48.838;2.322;2023-02-14T10:52:10;8.50;46.90
820;DHT22;392;48.838;2.322;2023-02-14T10:54:45;8.50;46.60
820;DHT22;392;48.838;2.322;2023-02-14T10:57:21;8.60;46.50
820;DHT22;392;48.838;2.322;2023-02-14T10:59:56;8.60;45.60
820;DHT22;392;48.838;2.322;2023-02-14T11:02:31;8.70;44.40
820;DHT22;392;48.838;2.322;2023-02-14T11:05:02;8.70;44.40
820;DHT22;392;48.838;2.322;2023-02-14T11:07:30;8.80;44.30
820;DHT22;392;48.838;2.322;2023-02-14T11:10:00;8.80;43.90
820;DHT22;392;48.838;2.322;2023-02-14T11:12:35;8.90;43.50
820;DHT22;392;48.838;2.322;2023-02-14T11:15:10;9.00;42.30
820;DHT22;392;48.838;2.322;2023-02-14T11:17:46;9.00;42.00
820;DHT22;392;48.838;2.322;2023-02-14T11:20:24;9.10;41.10
820;DHT22;392;48.838;2.322;2023-02-14T11:22:55;9.10;40.70
820;DHT22;392;48.838;2.322;2023-02-14T11:25:25;9.20;40.40
820;DHT22;392;48.838;2.322;2023-02-14T11:27:58;9.20;40.40
820;DHT22;392;48.838;2.322;2023-02-14T11:30:32;9.30;40.30
820;DHT22;392;48.838;2.322;2023-02-14T11:33:02;9.40;40.20
820;DHT22;392;48.838;2.322;2023-02-14T11:35:31;9.50;40.20
820;DHT22;392;48.838;2.322;2023-02-14T11:38:01;9.60;39.20
820;DHT22;392;48.838;2.322;2023-02-14T11:40:31;9.70;37.70
820;DHT22;392;48.838;2.322;2023-02-14T11:43:01;9.70;37.20
820;DHT22;392;48.838;2.322;2023-02-14T11:45:47;9.80;37.00
820;DHT22;392;48.838;2.322;2023-02-14T11:48:18;9.80;37.00
820;DHT22;392;48.838;2.322;2023-02-14T11:50:55;9.90;36.40
820;DHT22;392;48.838;2.322;2023-02-14T11:53:25;10.00;35.20
820;DHT22;392;48.838;2.322;2023-02-14T11:55:55;10.10;34.90
820;DHT22;392;48.838;2.322;2023-02-14T11:58:34;10.20;34.80
820;DHT22;392;48.838;2.322;2023-02-14T12:01:06;10.30;34.70
820;DHT22;392;48.838;2.322;2023-02-14T12:03:38;10.40;34.40
820;DHT22;392;48.838;2.322;2023-02-14T12:06:10;10.50;34.40
820;DHT22;392;48.838;2.322;2023-02-14T12:08:38;10.60;34.80
820;DHT22;392;48.838;2.322;2023-02-14T12:11:18;10.60;33.30
820;DHT22;392;48.838;2.322;2023-02-14T12:13:54;10.70;32.50
820;DHT22;392;48.838;2.322;2023-02-14T12:16:28;10.70;32.50
820;DHT22;392;48.838;2.322;2023-02-14T12:19:02;10.70;32.70
820;DHT22;392;48.838;2.322;2023-02-14T12:21:43;10.70;32.60
820;DHT22;392;48.838;2.322;2023-02-14T12:24:24;10.70;32.60
820;DHT22;392;48.838;2.322;2023-02-14T12:27:02;10.80;32.30
820;DHT22;392;48.838;2.322;2023-02-14T12:29:36;10.80;32.10
820;DHT22;392;48.838;2.322;2023-02-14T12:32:16;10.90;31.70
820;DHT22;392;48.838;2.322;2023-02-14T12:34:47;10.90;31.40
820;DHT22;392;48.838;2.322;2023-02-14T12:37:45;11.00;30.80
820;DHT22;392;48.838;2.322;2023-02-14T12:40:21;11.10;29.90
820;DHT22;392;48.838;2.322;2023-02-14T12:43:02;11.20;30.00
820;DHT22;392;48.838;2.322;2023-02-14T12:46:42;11.30;30.00
820;DHT22;392;48.838;2.322;2023-02-14T12:52:51;11.40;29.10
820;DHT22;392;48.838;2.322;2023-02-14T12:55:35;11.50;29.00
820;DHT22;392;48.838;2.322;2023-02-14T12:58:39;11.50;29.50
820;DHT22;392;48.838;2.322;2023-02-14T13:01:32;11.60;28.50
820;DHT22;392;48.838;2.322;2023-02-14T13:04:38;11.70;28.00
820;DHT22;392;48.838;2.322;2023-02-14T13:07:22;11.80;27.60
820;DHT22;392;48.838;2.322;2023-02-14T13:10:21;11.90;28.00
820;DHT22;392;48.838;2.322;2023-02-14T13:12:58;12.10;27.10
820;DHT22;392;48.838;2.322;2023-02-14T13:15:35;12.10;26.80
820;DHT22;392;48.838;2.322;2023-02-14T13:18:10;12.30;26.60
820;DHT22;392;48.838;2.322;2023-02-14T13:20:49;12.70;25.90
820;DHT22;392;48.838;2.322;2023-02-14T13:23:23;13.40;26.00
820;DHT22;392;48.838;2.322;2023-02-14T13:25:56;14.50;24.00
820;DHT22;392;48.838;2.322;2023-02-14T13:28:27;15.60;21.20
820;DHT22;392;48.838;2.322;2023-02-14T13:30:57;16.50;18.70
820;DHT22;392;48.838;2.322;2023-02-14T13:33:29;17.20;16.60
820;DHT22;392;48.838;2.322;2023-02-14T13:36:02;17.50;16.30
820;DHT22;392;48.838;2.322;2023-02-14T13:38:31;18.00;15.40
820;DHT22;392;48.838;2.322;2023-02-14T13:41:01;18.40;14.40
820;DHT22;392;48.838;2.322;2023-02-14T13:43:54;18.60;13.00
820;DHT22;392;48.838;2.322;2023-02-14T13:46:49;18.60;13.00
820;DHT22;392;48.838;2.322;2023-02-14T13:49:27;18.80;12.50
820;DHT22;392;48.838;2.322;2023-02-14T13:52:39;19.10;12.30
820;DHT22;392;48.838;2.322;2023-02-14T13:55:12;19.50;11.10
820;DHT22;392;48.838;2.322;2023-02-14T13:57:42;19.60;10.60
820;DHT22;392;48.838;2.322;2023-02-14T14:00:35;19.60;11.00
820;DHT22;392;48.838;2.322;2023-02-14T14:03:54;19.70;10.10
820;DHT22;392;48.838;2.322;2023-02-14T14:06:22;19.80;9.20
820;DHT22;392;48.838;2.322;2023-02-14T14:08:57;19.50;9.90
820;DHT22;392;48.838;2.322;2023-02-14T14:11:57;19.40;9.00
820;DHT22;392;48.838;2.322;2023-02-14T14:14:35;19.20;9.20
820;DHT22;392;48.838;2.322;2023-02-14T14:17:22;19.10;9.10
820;DHT22;392;48.838;2.322;2023-02-14T14:19:52;19.00;9.50
820;DHT22;392;48.838;2.322;2023-02-14T14:22:29;18.90;9.60
820;DHT22;392;48.838;2.322;2023-02-14T14:25:09;18.90;9.40
820;DHT22;392;48.838;2.322;2023-02-14T14:27:49;18.90;10.40
820;DHT22;392;48.838;2.322;2023-02-14T14:30:22;19.10;10.50
820;DHT22;392;48.838;2.322;2023-02-14T14:33:12;19.00;9.90
820;DHT22;392;48.838;2.322;2023-02-14T14:35:51;18.70;10.30
820;DHT22;392;48.838;2.322;2023-02-14T14:38:18;18.40;10.40
820;DHT22;392;48.838;2.322;2023-02-14T14:40:47;18.40;10.20
820;DHT22;392;48.838;2.322;2023-02-14T14:43:21;18.50;10.20
820;DHT22;392;48.838;2.322;2023-02-14T14:45:52;18.40;10.10
820;DHT22;392;48.838;2.322;2023-02-14T14:48:26;18.50;10.80
820;DHT22;392;48.838;2.322;2023-02-14T14:50:56;18.40;10.50
820;DHT22;392;48.838;2.322;2023-02-14T14:53:28;18.40;10.40
820;DHT22;392;48.838;2.322;2023-02-14T14:56:02;18.30;10.60
820;DHT22;392;48.838;2.322;2023-02-14T14:58:35;18.20;10.00
820;DHT22;392;48.838;2.322;2023-02-14T15:01:05;18.10;10.00
820;DHT22;392;48.838;2.322;2023-02-14T15:03:34;18.00;10.40
820;DHT22;392;48.838;2.322;2023-02-14T15:06:14;17.80;10.70
820;DHT22;392;48.838;2.322;2023-02-14T15:08:44;17.60;11.10
820;DHT22;392;48.838;2.322;2023-02-14T15:11:17;17.30;11.30
820;DHT22;392;48.838;2.322;2023-02-14T15:14:02;17.00;11.50
820;DHT22;392;48.838;2.322;2023-02-14T15:16:39;16.80;12.00
820;DHT22;392;48.838;2.322;2023-02-14T15:19:09;16.60;12.30
820;DHT22;392;48.838;2.322;2023-02-14T15:21:40;16.50;12.40
820;DHT22;392;48.838;2.322;2023-02-14T15:24:11;16.30;13.50
820;DHT22;392;48.838;2.322;2023-02-14T15:26:42;16.20;12.90
820;DHT22;392;48.838;2.322;2023-02-14T15:29:20;16.10;13.20
820;DHT22;392;48.838;2.322;2023-02-14T15:31:48;16.00;13.50
820;DHT22;392;48.838;2.322;2023-02-14T15:34:19;15.90;13.70
820;DHT22;392;48.838;2.322;2023-02-14T15:36:48;15.80;14.10
820;DHT22;392;48.838;2.322;2023-02-14T15:39:17;15.70;14.40
820;DHT22;392;48.838;2.322;2023-02-14T15:41:52;15.60;14.80
820;DHT22;392;48.838;2.322;2023-02-14T15:44:22;15.50;15.00
820;DHT22;392;48.838;2.322;2023-02-14T15:47:21;15.40;15.20
820;DHT22;392;48.838;2.322;2023-02-14T15:49:48;15.30;15.50
820;DHT22;392;48.838;2.322;2023-02-14T15:52:15;15.20;15.70
820;DHT22;392;48.838;2.322;2023-02-14T15:54:50;15.10;16.00
820;DHT22;392;48.838;2.322;2023-02-14T15:57:24;15.00;16.20
820;DHT22;392;48.838;2.322;2023-02-14T16:00:16;14.90;16.30
820;DHT22;392;48.838;2.322;2023-02-14T16:02:50;14.80;16.80
820;DHT22;392;48.838;2.322;2023-02-14T16:05:29;14.80;16.70
820;DHT22;392;48.838;2.322;2023-02-14T16:08:01;14.70;16.90
820;DHT22;392;48.838;2.322;2023-02-14T16:10:32;14.60;17.10
820;DHT22;392;48.838;2.322;2023-02-14T16:13:06;14.60;17.20
820;DHT22;392;48.838;2.322;2023-02-14T16:15:55;14.50;17.20
820;DHT22;392;48.838;2.322;2023-02-14T16:18:33;14.50;17.30
820;DHT22;392;48.838;2.322;2023-02-14T16:21:14;14.50;17.40
820;DHT22;392;48.838;2.322;2023-02-14T16:23:44;14.40;17.40
820;DHT22;392;48.838;2.322;2023-02-14T16:26:13;14.40;17.50
820;DHT22;392;48.838;2.322;2023-02-14T16:28:42;14.40;17.60
820;DHT22;392;48.838;2.322;2023-02-14T16:31:13;14.40;17.60
820;DHT22;392;48.838;2.322;2023-02-14T16:33:41;14.30;17.50
820;DHT22;392;48.838;2.322;2023-02-14T16:36:16;14.30;17.70
820;DHT22;392;48.838;2.322;2023-02-14T16:38:46;14.30;17.70
820;DHT22;392;48.838;2.322;2023-02-14T16:41:17;14.30;17.80
820;DHT22;392;48.838;2.322;2023-02-14T16:43:48;14.30;17.80
820;DHT22;392;48.838;2.322;2023-02-14T16:46:17;14.30;17.90
820;DHT22;392;48.838;2.322;2023-02-14T16:48:46;14.20;17.90
820;DHT22;392;48.838;2.322;2023-02-14T16:51:17;14.20;18.00
820;DHT22;392;48.838;2.322;2023-02-14T16:53:45;14.10;18.00
820;DHT22;392;48.838;2.322;2023-02-14T16:56:16;14.10;18.10
820;DHT22;392;48.838;2.322;2023-02-14T16:58:48;14.10;18.20
820;DHT22;392;48.838;2.322;2023-02-14T17:01:18;14.00;18.30
820;DHT22;392;48.838;2.322;2023-02-14T17:04:15;14.00;18.40
820;DHT22;392;48.838;2.322;2023-02-14T17:06:44;13.90;18.50
820;DHT22;392;48.838;2.322;2023-02-14T17:09:15;13.90;18.60
820;DHT22;392;48.838;2.322;2023-02-14T17:11:46;13.80;19.20
820;DHT22;392;48.838;2.322;2023-02-14T17:14:22;13.80;18.70
820;DHT22;392;48.838;2.322;2023-02-14T17:16:50;13.80;18.90
820;DHT22;392;48.838;2.322;2023-02-14T17:19:21;13.80;19.50
820;DHT22;392;48.838;2.322;2023-02-14T17:21:48;13.70;18.90
820;DHT22;392;48.838;2.322;2023-02-14T17:24:15;13.70;18.90
820;DHT22;392;48.838;2.322;2023-02-14T17:26:45;13.70;19.10
820;DHT22;392;48.838;2.322;2023-02-14T17:29:14;13.60;19.40
820;DHT22;392;48.838;2.322;2023-02-14T17:31:42;13.60;19.50
820;DHT22;392;48.838;2.322;2023-02-14T17:34:12;13.60;19.50
820;DHT22;392;48.838;2.322;2023-02-14T17:36:40;13.50;19.60
820;DHT22;392;48.838;2.322;2023-02-14T17:39:07;13.50;19.80
820;DHT22;392;48.838;2.322;2023-02-14T17:41:34;13.50;20.10
820;DHT22;392;48.838;2.322;2023-02-14T17:44:02;13.40;20.40